Time;durP1;ratioP1;P1;durP2;ratioP2;P2;SDS_P1;SDS_P2;PMS_P1;PMS_P2;Temp;Humidity;BMP_temperature;BMP_pressure;BME280_temperature;BME280_humidity;BME280_pressure;Samples;Min_cycle;Max_cycle;Signal;HPM_P1;HPM_P2
2022/09/06 00:00:23;;;;;;;8.05;4.30;;;;;;;18.36;90.03;101429.09;5023720;28;20017;-69
2022/09/06 00:02:49;;;;;;;8.38;4.70;;;;;;;18.32;91.05;101436.28;5007591;28;20044;-70
2022/09/06 00:05:14;;;;;;;7.78;4.65;;;;;;;18.33;92.22;101443.50;5023657;28;20387;-70
2022/09/06 00:07:40;;;;;;;10.95;4.70;;;;;;;18.30;92.05;101452.41;5020135;28;20511;-70
2022/09/06 00:10:06;;;;;;;9.15;5.30;;;;;;;18.35;92.29;101461.63;5024287;28;20396;-70
2022/09/06 00:12:31;;;;;;;7.93;5.60;;;;;;;18.40;93.72;101477.50;5024246;28;20029;-70
2022/09/06 00:14:57;;;;;;;7.50;5.43;;;;;;;18.45;92.68;101513.72;5024013;28;20024;-70
2022/09/06 00:17:22;;;;;;;10.13;5.63;;;;;;;18.49;93.64;101545.41;5022922;28;20721;-70
2022/09/06 00:19:47;;;;;;;11.45;6.50;;;;;;;18.57;95.29;101521.84;5024229;28;20077;-70
2022/09/06 00:22:12;;;;;;;9.40;6.78;;;;;;;18.56;95.39;101523.78;5022029;28;20435;-69
2022/09/06 00:24:38;;;;;;;9.60;6.25;;;;;;;18.50;93.93;101608.31;5023954;28;20033;-70
2022/09/06 00:27:05;;;;;;;8.60;6.78;;;;;;;18.40;91.98;101606.28;5021940;28;20476;-70
2022/09/06 00:29:31;;;;;;;8.70;7.10;;;;;;;18.32;92.19;101620.66;5018957;28;20036;-70
2022/09/06 00:31:56;;;;;;;8.18;6.30;;;;;;;18.28;92.64;101635.34;5023381;28;20392;-69
2022/09/06 00:34:21;;;;;;;10.95;7.07;;;;;;;18.25;91.47;101635.88;5022623;28;20068;-69
2022/09/06 00:36:47;;;;;;;12.35;8.40;;;;;;;18.21;92.97;101629.19;5013343;28;20496;-69
2022/09/06 00:39:12;;;;;;;9.68;7.28;;;;;;;18.14;92.84;101632.16;5022985;28;20030;-69
2022/09/06 00:41:37;;;;;;;11.38;8.25;;;;;;;18.17;94.47;101637.19;5023153;28;20029;-70
2022/09/06 00:44:03;;;;;;;10.35;8.02;;;;;;;18.17;93.57;101623.28;5022211;28;20040;-69
2022/09/06 00:46:30;;;;;;;11.38;9.02;;;;;;;18.21;95.23;101615.28;5023228;28;20032;-69
2022/09/06 00:49:01;;;;;;;11.47;8.37;;;;;;;18.21;94.62;101623.63;5016136;28;20076;-70
2022/09/06 00:51:29;;;;;;;11.73;8.80;;;;;;;18.21;95.50;101624.44;5015088;28;20053;-70
2022/09/06 00:53:54;;;;;;;12.48;9.70;;;;;;;18.22;95.51;101619.72;5023863;28;20491;-70
2022/09/06 00:56:20;;;;;;;12.27;8.98;;;;;;;18.24;96.87;101614.72;5021815;28;20117;-70
2022/09/06 00:58:47;;;;;;;12.68;9.52;;;;;;;18.30;97.55;101594.25;5023063;28;20657;-70
2022/09/06 01:01:12;;;;;;;12.32;9.63;;;;;;;18.25;96.40;101597.81;5023367;28;20064;-70
2022/09/06 01:03:38;;;;;;;12.48;10.20;;;;;;;18.17;96.58;101589.09;5023693;28;20451;-70
2022/09/06 01:06:23;;;;;;;13.20;9.75;;;;;;;18.07;97.30;101590.66;5022154;28;20401;-70
2022/09/06 01:09:18;;;;;;;12.10;9.98;;;;;;;18.12;96.28;101579.59;5017024;28;20709;-70
2022/09/06 01:12:23;;;;;;;15.02;10.93;;;;;;;18.05;97.26;101570.66;5018156;28;20175;-70
2022/09/06 01:15:11;;;;;;;13.65;11.35;;;;;;;17.99;98.71;101570.84;5034488;22;20049;-70
2022/09/06 01:17:49;;;;;;;15.45;12.40;;;;;;;17.92;98.96;101571.06;5048671;28;20040;-70
2022/09/06 01:20:33;;;;;;;15.93;11.98;;;;;;;17.98;98.97;101563.59;5041575;28;20108;-70
2022/09/06 01:23:49;;;;;;;17.50;12.43;;;;;;;18.01;98.61;101561.16;5054297;28;20382;-71
2022/09/06 01:26:40;;;;;;;18.10;12.38;;;;;;;17.95;98.85;101556.66;4969380;28;20049;-70
2022/09/06 01:29:14;;;;;;;15.20;12.35;;;;;;;17.93;98.79;101549.66;4958948;28;20124;-70
2022/09/06 01:31:53;;;;;;;16.90;12.63;;;;;;;17.90;99.31;101545.47;5038209;28;20423;-70
2022/09/06 01:34:27;;;;;;;17.40;13.73;;;;;;;17.87;98.64;101523.75;5055014;28;20024;-71
2022/09/06 01:37:03;;;;;;;20.55;13.98;;;;;;;17.84;99.24;101500.13;5039563;28;20029;-71
2022/09/06 01:39:32;;;;;;;18.05;14.48;;;;;;;17.72;100.00;101466.06;5056775;28;20039;-71
2022/09/06 01:42:03;;;;;;;21.65;15.68;;;;;;;17.68;100.00;101439.06;5021999;28;20119;-71
2022/09/06 01:44:30;;;;;;;19.02;15.07;;;;;;;17.67;99.81;101407.69;5035247;28;20021;-71
2022/09/06 01:47:02;;;;;;;26.38;16.52;;;;;;;17.70;100.00;101392.44;5055580;28;20028;-71
2022/09/06 01:50:15;;;;;;;23.63;17.13;;;;;;;17.72;99.71;101381.88;5060538;28;20082;-71
2022/09/06 01:52:55;;;;;;;24.05;16.42;;;;;;;17.61;100.00;101376.25;5033153;28;20194;-70
2022/09/06 01:55:36;;;;;;;23.75;16.98;;;;;;;17.61;99.75;101390.13;5042336;28;20021;-70
2022/09/06 01:59:09;;;;;;;23.50;15.77;;;;;;;17.68;98.83;101387.13;5052401;28;20523;-70
2022/09/06 02:01:52;;;;;;;22.70;16.67;;;;;;;17.66;99.41;101383.78;4961359;28;20073;-70
2022/09/06 02:05:00;;;;;;;25.95;16.05;;;;;;;17.70;98.09;101384.94;5039415;28;20124;-70
2022/09/06 02:07:28;;;;;;;24.33;16.70;;;;;;;17.71;98.75;101383.00;4966812;28;20043;-70
2022/09/06 02:09:59;;;;;;;;;;;;;;;17.84;95.14;101379.78;5031481;28;20044;-70
2022/09/06 02:12:28;;;;;;;25.13;16.08;;;;;;;17.75;97.49;101385.00;5056054;28;19916;-70
2022/09/06 02:15:10;;;;;;;25.70;16.70;;;;;;;17.80;97.22;101387.00;5056070;28;20052;-71
2022/09/06 02:17:41;;;;;;;25.30;17.13;;;;;;;17.76;97.63;101381.13;5022247;28;20472;-70
2022/09/06 02:20:11;;;;;;;22.27;16.40;;;;;;;17.79;96.73;101386.16;5022251;28;20028;-70
2022/09/06 02:22:42;;;;;;;28.60;17.88;;;;;;;17.77;96.70;101370.84;5054843;28;20017;-70
2022/09/06 02:25:10;;;;;;;27.85;18.10;;;;;;;17.77;96.46;101368.91;5054992;28;21015;-71
2022/09/06 02:27:36;;;;;;;23.27;17.75;;;;;;;17.76;98.03;101383.06;5060433;28;20032;-71
2022/09/06 02:30:03;;;;;;;28.23;17.48;;;;;;;17.79;98.44;101393.63;5062047;28;20029;-70
2022/09/06 02:32:31;;;;;;;25.92;18.77;;;;;;;17.80;99.78;101400.88;5065372;28;20021;-70
2022/09/06 02:34:57;;;;;;;22.80;16.95;;;;;;;17.82;98.76;101437.56;5059325;28;20024;-70
2022/09/06 02:37:25;;;;;;;26.02;18.25;;;;;;;17.85;99.06;101423.16;5043907;28;20036;-70
2022/09/06 02:39:50;;;;;;;23.20;16.73;;;;;;;17.84;97.77;101414.00;5045342;28;20027;-66
2022/09/06 02:42:16;;;;;;;24.38;17.75;;;;;;;17.77;98.57;101418.06;5052933;28;20036;-71
2022/09/06 02:44:41;;;;;;;24.88;17.38;;;;;;;17.71;98.61;101428.28;5060522;28;20028;-71
2022/09/06 02:47:07;;;;;;;24.35;17.02;;;;;;;17.70;99.01;101414.66;5065341;28;20470;-70
2022/09/06 02:49:32;;;;;;;24.45;17.48;;;;;;;17.66;98.91;101406.00;5065653;28;20024;-71
2022/09/06 02:51:57;;;;;;;23.98;16.67;;;;;;;17.60;98.63;101402.34;5063587;28;20109;-71
2022/09/06 02:54:23;;;;;;;24.60;17.00;;;;;;;17.51;99.24;101397.53;5059566;28;20115;-71
2022/09/06 02:56:48;;;;;;;22.70;16.45;;;;;;;17.44;99.72;101405.25;5053713;28;20036;-70
2022/09/06 02:59:14;;;;;;;23.88;16.10;;;;;;;17.41;99.81;101395.50;5048177;28;20036;-70
2022/09/06 03:01:39;;;;;;;22.77;16.35;;;;;;;17.40;100.00;101402.16;5065271;28;20024;-70
2022/09/06 03:04:04;;;;;;;25.90;16.42;;;;;;;17.37;100.00;101403.50;5058155;28;20035;-70
2022/09/06 03:06:30;;;;;;;26.08;16.13;;;;;;;17.36;100.00;101401.84;5052052;28;20028;-71
2022/09/06 03:08:55;;;;;;;23.63;15.75;;;;;;;17.32;99.64;101400.69;5044089;28;20624;-71
2022/09/06 03:11:21;;;;;;;22.75;15.73;;;;;;;17.31;100.00;101395.41;5044252;28;20082;-70
2022/09/06 03:13:46;;;;;;;23.27;16.20;;;;;;;17.27;100.00;101391.47;5046884;28;20452;-71
2022/09/06 03:16:12;;;;;;;18.58;15.27;;;;;;;17.22;100.00;101394.19;5063330;28;20020;-70
2022/09/06 03:18:37;;;;;;;20.48;15.85;;;;;;;17.17;100.00;101388.59;5065082;28;20035;-71
2022/09/06 03:21:02;;;;;;;22.73;15.35;;;;;;;17.16;100.00;101396.09;5051028;28;20025;-70
2022/09/06 03:23:28;;;;;;;18.98;15.18;;;;;;;17.13;100.00;101396.59;5043810;28;20125;-70
2022/09/06 03:25:54;;;;;;;20.48;15.52;;;;;;;17.12;100.00;101394.91;5062453;28;20047;-70
2022/09/06 03:28:20;;;;;;;17.65;14.63;;;;;;;17.16;100.00;101396.09;5064363;28;20032;-70
2022/09/06 03:30:48;;;;;;;18.80;14.18;;;;;;;17.12;100.00;101394.91;5055338;28;20021;-70
2022/09/06 03:33:13;;;;;;;17.88;14.30;;;;;;;17.10;100.00;101397.97;5050741;28;20050;-70
2022/09/06 03:35:40;;;;;;;17.90;13.95;;;;;;;17.01;100.00;101399.53;5062147;28;20493;-70
2022/09/06 03:38:06;;;;;;;15.73;14.05;;;;;;;17.01;100.00;101398.69;5062212;28;20662;-70
2022/09/06 03:40:31;;;;;;;17.42;13.82;;;;;;;16.98;100.00;101405.63;5056115;28;20051;-70
2022/09/06 03:42:57;;;;;;;18.25;13.48;;;;;;;17.00;100.00;101406.19;5052359;28;20413;-70
2022/09/06 03:45:22;;;;;;;16.77;13.43;;;;;;;16.99;100.00;101398.97;5057748;28;20130;-70
2022/09/06 03:47:47;;;;;;;14.77;13.18;;;;;;;17.00;100.00;101408.13;5062931;28;20339;-71
2022/09/06 03:50:12;;;;;;;17.15;13.93;;;;;;;16.99;100.00;101412.00;5043787;28;20025;-70
2022/09/06 03:52:39;;;;;;;15.65;13.38;;;;;;;17.01;100.00;101402.31;5043700;28;20032;-70
2022/09/06 03:55:05;;;;;;;14.00;12.50;;;;;;;16.93;100.00;101405.56;5056952;28;20044;-71
2022/09/06 03:57:30;;;;;;;14.93;11.32;;;;;;;16.81;100.00;101402.06;5053999;28;20067;-70
2022/09/06 03:59:55;;;;;;;13.60;11.73;;;;;;;16.77;100.00;101404.50;5061984;28;20036;-70
2022/09/06 04:02:20;;;;;;;12.68;11.35;;;;;;;16.72;100.00;101411.94;5040000;28;20617;-70
2022/09/06 04:04:46;;;;;;;12.77;11.48;;;;;;;16.66;100.00;101413.75;5044056;28;20112;-70
2022/09/06 04:07:11;;;;;;;13.55;12.10;;;;;;;16.61;100.00;101409.00;5053026;28;20025;-70
2022/09/06 04:09:36;;;;;;;12.40;11.10;;;;;;;16.60;100.00;101410.09;5042996;28;20028;-70
2022/09/06 04:12:02;;;;;;;13.60;11.93;;;;;;;16.57;100.00;101409.75;5045032;28;20958;-69
2022/09/06 04:14:27;;;;;;;12.75;11.38;;;;;;;16.50;100.00;101409.13;5048465;28;20080;-71
2022/09/06 04:16:53;;;;;;;14.00;11.77;;;;;;;16.50;100.00;101404.41;5035129;28;20485;-70
2022/09/06 04:19:18;;;;;;;14.95;11.75;;;;;;;16.47;100.00;101406.84;5051934;28;20364;-70
2022/09/06 04:21:43;;;;;;;12.65;11.35;;;;;;;16.47;100.00;101401.31;5045825;28;20036;-71
2022/09/06 04:24:09;;;;;;;12.70;11.40;;;;;;;16.48;100.00;101403.00;5043808;28;20025;-71
2022/09/06 04:26:34;;;;;;;13.63;11.23;;;;;;;16.44;100.00;101415.69;5043440;28;20372;-71
2022/09/06 04:28:59;;;;;;;13.02;11.60;;;;;;;16.40;100.00;101418.13;5043570;28;20098;-70
2022/09/06 04:31:25;;;;;;;13.15;11.75;;;;;;;16.40;100.00;101420.06;5044683;28;20033;-71
2022/09/06 04:33:50;;;;;;;13.82;12.10;;;;;;;16.38;100.00;101425.88;5057267;28;20426;-67
2022/09/06 04:36:15;;;;;;;13.65;12.20;;;;;;;16.37;100.00;101418.63;5052118;28;20032;-70
2022/09/06 04:38:42;;;;;;;13.38;11.98;;;;;;;16.40;100.00;101428.38;5043218;28;20078;-70
2022/09/06 04:41:10;;;;;;;13.43;12.02;;;;;;;16.40;100.00;101420.91;5051965;28;20032;-71
2022/09/06 04:43:35;;;;;;;13.80;12.40;;;;;;;16.41;100.00;101428.13;5042688;28;20387;-71
2022/09/06 04:46:03;;;;;;;14.32;12.82;;;;;;;16.48;100.00;101427.97;5038407;28;20291;-70
2022/09/06 04:48:28;;;;;;;13.45;12.00;;;;;;;16.44;100.00;101426.78;5041739;28;20040;-71
2022/09/06 04:50:53;;;;;;;13.90;11.77;;;;;;;16.43;100.00;101433.44;5041081;28;20025;-71
2022/09/06 04:53:19;;;;;;;13.55;12.15;;;;;;;16.42;100.00;101432.56;5032463;28;20063;-71
2022/09/06 04:55:44;;;;;;;12.75;11.02;;;;;;;16.34;100.00;101433.03;5062467;28;20037;-71
2022/09/06 04:58:09;;;;;;;13.25;10.25;;;;;;;16.28;100.00;101429.34;5052323;28;20029;-70
2022/09/06 05:00:37;;;;;;;12.02;10.60;;;;;;;16.18;100.00;101431.94;5058682;28;20027;-70
2022/09/06 05:03:02;;;;;;;10.90;9.55;;;;;;;16.10;100.00;101429.59;5061083;28;20016;-71
2022/09/06 05:05:28;;;;;;;12.90;9.80;;;;;;;16.07;100.00;101432.91;5062642;28;20025;-71
2022/09/06 05:07:54;;;;;;;11.02;9.43;;;;;;;16.04;100.00;101439.78;5053209;28;20025;-70
2022/09/06 05:10:21;;;;;;;11.95;9.38;;;;;;;15.99;100.00;101431.38;5042044;28;20023;-70
2022/09/06 05:12:50;;;;;;;12.17;9.43;;;;;;;15.93;100.00;101432.38;5039539;28;20037;-70
2022/09/06 05:15:17;;;;;;;11.00;9.15;;;;;;;15.89;100.00;101431.22;5042320;28;20353;-70
2022/09/06 05:17:42;;;;;;;12.25;9.70;;;;;;;15.89;100.00;101438.69;5042064;28;20039;-71
2022/09/06 05:20:09;;;;;;;11.07;9.60;;;;;;;15.88;100.00;101434.25;5054887;28;20036;-71
2022/09/06 05:22:34;;;;;;;13.57;9.48;;;;;;;15.87;100.00;101433.41;5049621;28;20378;-71
2022/09/06 05:25:00;;;;;;;11.15;9.98;;;;;;;15.83;100.00;101432.22;5041430;28;20112;-71
2022/09/06 05:27:25;;;;;;;12.55;10.52;;;;;;;15.79;100.00;101425.50;5042133;28;20024;-71
2022/09/06 05:29:50;;;;;;;10.48;9.38;;;;;;;15.72;100.00;101439.53;5041649;28;20033;-71
2022/09/06 05:32:15;;;;;;;12.07;10.25;;;;;;;15.73;100.00;101443.13;5047180;28;20082;-71
2022/09/06 05:34:41;;;;;;;14.27;12.23;;;;;;;15.80;100.00;101436.31;5061548;28;20114;-71
2022/09/06 05:37:06;;;;;;;13.48;12.18;;;;;;;15.76;100.00;101437.94;5062232;28;20402;-71
2022/09/06 05:39:31;;;;;;;14.13;11.07;;;;;;;15.77;100.00;101445.16;5047380;28;20029;-71
2022/09/06 05:41:57;;;;;;;15.00;13.50;;;;;;;15.82;100.00;101439.69;5052108;28;20033;-70
2022/09/06 05:44:22;;;;;;;18.17;14.82;;;;;;;15.83;100.00;101443.31;5062854;28;20348;-71
2022/09/06 05:46:48;;;;;;;17.50;15.68;;;;;;;15.85;100.00;101443.88;5046438;28;20107;-71
2022/09/06 05:49:13;;;;;;;17.58;15.77;;;;;;;15.88;100.00;101440.63;5050766;28;20438;-71
2022/09/06 05:51:39;;;;;;;17.92;16.02;;;;;;;15.88;100.00;101437.84;5040237;28;20023;-71
2022/09/06 05:54:06;;;;;;;21.23;17.75;;;;;;;15.96;100.00;101451.25;5060127;28;20429;-71
2022/09/06 05:56:32;;;;;;;21.10;18.90;;;;;;;16.02;100.00;101450.28;5048555;28;20028;-70
2022/09/06 05:58:57;;;;;;;21.08;18.83;;;;;;;16.08;100.00;101454.81;5045313;28;20055;-70
2022/09/06 06:01:28;;;;;;;20.08;17.98;;;;;;;16.08;100.00;101454.81;5042928;28;20034;-70
2022/09/06 06:04:01;;;;;;;23.17;20.33;;;;;;;16.15;100.00;101451.00;5050395;28;20059;-71
2022/09/06 06:06:28;;;;;;;22.42;19.58;;;;;;;16.15;100.00;101457.41;5061330;28;20020;-71
2022/09/06 06:08:55;;;;;;;23.38;20.80;;;;;;;16.23;100.00;101453.38;5050421;28;20029;-70
2022/09/06 06:11:20;;;;;;;26.85;20.35;;;;;;;16.25;100.00;101452.00;5053476;28;20116;-71
2022/09/06 06:13:46;;;;;;;24.17;21.02;;;;;;;16.29;100.00;101452.34;5042540;28;20125;-71
2022/09/06 06:16:14;;;;;;;24.52;21.63;;;;;;;16.32;100.00;101443.50;5054722;28;20025;-71
2022/09/06 06:18:39;;;;;;;25.88;21.83;;;;;;;16.35;100.00;101454.09;5044653;28;20036;-71
2022/09/06 06:21:08;;;;;;;24.45;21.92;;;;;;;16.42;100.00;101451.97;5042859;28;20430;-71
2022/09/06 06:23:33;;;;;;;28.02;22.50;;;;;;;16.47;100.00;101453.97;5046199;28;20476;-71
2022/09/06 06:25:59;;;;;;;24.80;22.02;;;;;;;16.50;100.00;101454.31;5044861;28;20079;-71
2022/09/06 06:28:24;;;;;;;27.40;23.30;;;;;;;16.58;100.00;101453.91;5045416;28;20542;-71
2022/09/06 06:30:49;;;;;;;27.13;23.15;;;;;;;16.61;100.00;101445.03;5046678;28;20032;-71
2022/09/06 06:33:15;;;;;;;29.23;23.60;;;;;;;16.68;100.00;101442.09;5044826;28;20534;-71
2022/09/06 06:35:40;;;;;;;28.38;25.23;;;;;;;16.74;100.00;101451.34;5045335;28;20024;-72
2022/09/06 06:38:05;;;;;;;29.02;24.30;;;;;;;16.79;100.00;101451.44;5042944;28;20082;-71
2022/09/06 06:40:30;;;;;;;33.08;26.55;;;;;;;16.85;100.00;101442.06;5045720;28;20025;-71
2022/09/06 06:42:56;;;;;;;32.53;26.10;;;;;;;16.91;100.00;101438.25;5044295;28;20043;-72
2022/09/06 06:45:21;;;;;;;30.00;25.50;;;;;;;16.95;100.00;101433.03;5043989;28;20029;-72
2022/09/06 06:47:50;;;;;;;31.02;26.02;;;;;;;17.00;100.00;101433.94;5046349;28;20025;-72
2022/09/06 06:50:15;;;;;;;32.15;26.67;;;;;;;17.05;100.00;101441.47;5046559;28;20099;-72
2022/09/06 06:52:41;;;;;;;33.13;28.13;;;;;;;17.07;100.00;101440.09;5043693;28;20108;-72
2022/09/06 06:55:07;;;;;;;33.92;28.98;;;;;;;17.14;100.00;101437.16;5043789;28;20029;-71
2022/09/06 06:57:32;;;;;;;37.70;28.50;;;;;;;17.20;100.00;101440.81;5045648;28;20531;-71
2022/09/06 06:59:57;;;;;;;37.97;29.38;;;;;;;17.25;100.00;101438.09;5045617;28;20025;-72
2022/09/06 07:02:23;;;;;;;40.08;30.83;;;;;;;17.28;100.00;101443.09;5044944;28;20017;-72
2022/09/06 07:04:48;;;;;;;38.90;29.98;;;;;;;17.36;100.00;101445.44;5065412;28;20052;-72
2022/09/06 07:07:14;;;;;;;39.37;29.80;;;;;;;17.42;100.00;101447.16;5040140;28;20029;-72
2022/09/06 07:09:39;;;;;;;40.35;29.42;;;;;;;17.49;100.00;101442.25;5043914;28;20760;-72
2022/09/06 07:12:05;;;;;;;37.60;28.88;;;;;;;17.54;100.00;101442.31;5032032;28;20028;-71
2022/09/06 07:14:30;;;;;;;41.78;31.52;;;;;;;17.67;98.33;101440.19;5027329;28;20048;-71
2022/09/06 07:16:58;;;;;;;38.75;29.73;;;;;;;17.76;99.47;101433.06;5027235;28;20033;-72
2022/09/06 07:19:23;;;;;;;45.40;33.70;;;;;;;17.82;100.00;101430.06;5034222;28;20426;-72
2022/09/06 07:21:48;;;;;;;41.22;32.75;;;;;;;17.93;100.00;101432.94;5035023;28;20029;-72
2022/09/06 07:24:14;;;;;;;48.60;32.50;;;;;;;17.97;100.00;101434.91;5032921;28;20040;-71
2022/09/06 07:26:39;;;;;;;43.05;32.40;;;;;;;18.04;98.58;101435.50;5027593;28;20295;-72
2022/09/06 07:29:05;;;;;;;43.45;32.10;;;;;;;18.14;97.64;101430.03;5030565;28;20032;-71
2022/09/06 07:31:31;;;;;;;41.45;32.15;;;;;;;18.24;98.07;101439.56;5037644;28;20031;-72
2022/09/06 07:33:57;;;;;;;43.47;31.55;;;;;;;18.33;97.76;101426.84;5026590;28;20029;-72
2022/09/06 07:36:22;;;;;;;41.65;31.30;;;;;;;18.40;97.30;101427.44;5035690;28;20132;-72
2022/09/06 07:38:49;;;;;;;41.90;30.13;;;;;;;18.52;94.32;101430.84;5026419;28;20020;-73
2022/09/06 07:41:16;;;;;;;41.72;29.70;;;;;;;18.66;93.84;101431.19;5030698;28;20166;-72
2022/09/06 07:43:42;;;;;;;42.50;31.42;;;;;;;18.76;93.49;101430.44;5040421;28;20612;-72
2022/09/06 07:46:11;;;;;;;43.13;31.45;;;;;;;18.88;93.31;101437.44;5035798;28;20040;-72
2022/09/06 07:48:39;;;;;;;39.78;29.50;;;;;;;18.95;93.48;101433.56;5025828;28;20025;-72
2022/09/06 07:51:12;;;;;;;39.50;28.65;;;;;;;19.09;92.03;101426.38;5026698;28;20538;-71
2022/09/06 07:53:40;;;;;;;40.25;27.50;;;;;;;19.25;89.79;101430.06;5027180;28;20586;-71
2022/09/06 07:56:07;;;;;;;36.65;26.83;;;;;;;19.30;91.27;101433.69;5026683;28;20099;-71
2022/09/06 07:58:33;;;;;;;39.13;28.50;;;;;;;19.43;92.07;101432.34;5032045;28;20036;-71
2022/09/06 08:01:18;;;;;;;39.92;27.13;;;;;;;19.54;89.85;101422.88;5035168;28;20061;-71
2022/09/06 08:03:44;;;;;;;39.47;26.27;;;;;;;19.63;89.45;101428.78;5025394;28;20480;-71
2022/09/06 08:06:10;;;;;;;37.85;24.38;;;;;;;19.72;88.50;101417.88;5026184;28;20028;-72
2022/09/06 08:08:35;;;;;;;31.05;21.38;;;;;;;19.84;85.39;101410.09;5029844;28;20034;-72
2022/09/06 08:11:01;;;;;;;31.23;21.17;;;;;;;19.98;84.23;101414.00;5023299;28;20028;-72
2022/09/06 08:13:26;;;;;;;32.28;21.30;;;;;;;20.09;84.35;101412.88;5031937;28;20037;-72
2022/09/06 08:16:03;;;;;;;26.10;18.67;;;;;;;20.25;81.50;101413.69;5031168;28;20032;-72
2022/09/06 08:18:29;;;;;;;26.77;18.13;;;;;;;20.42;83.10;101416.16;5026113;28;20041;-71
2022/09/06 08:20:54;;;;;;;27.88;17.52;;;;;;;20.58;80.41;101405.81;5030156;28;20554;-71
2022/09/06 08:23:20;;;;;;;25.75;15.88;;;;;;;20.73;80.70;101406.59;5029100;28;20025;-71
2022/09/06 08:25:55;;;;;;;22.77;16.23;;;;;;;21.00;79.10;101408.16;5036610;28;20063;-72
2022/09/06 08:28:21;;;;;;;24.20;16.02;;;;;;;21.21;76.44;101411.66;5031265;28;20531;-71
2022/09/06 08:30:46;;;;;;;23.40;14.40;;;;;;;21.27;74.15;101412.47;5037864;28;20136;-71
2022/09/06 08:33:11;;;;;;;23.07;15.03;;;;;;;21.29;75.44;101405.47;5020686;28;20029;-72
2022/09/06 08:35:37;;;;;;;21.27;14.07;;;;;;;21.40;76.82;101406.28;5021279;28;20283;-71
2022/09/06 08:38:04;;;;;;;23.30;14.50;;;;;;;21.50;74.99;101404.25;5037483;28;21040;-71
2022/09/06 08:40:30;;;;;;;22.95;13.50;;;;;;;21.76;75.02;101410.47;5027747;28;20853;-71
2022/09/06 08:42:56;;;;;;;15.02;9.98;;;;;;;21.79;70.64;101400.66;5026677;28;20112;-71
2022/09/06 08:45:22;;;;;;;15.48;9.73;;;;;;;21.81;71.03;101417.16;5018867;28;20070;-71
2022/09/06 08:47:49;;;;;;;16.90;9.60;;;;;;;21.87;71.02;101411.22;5025107;28;20043;-73
2022/09/06 08:50:15;;;;;;;17.20;9.65;;;;;;;21.98;69.62;101396.00;5022706;28;20055;-71
2022/09/06 08:53:04;;;;;;;14.50;9.07;;;;;;;22.13;71.19;101397.03;5045242;28;20752;-71
2022/09/06 08:55:32;;;;;;;16.33;9.98;;;;;;;22.39;68.75;101400.38;5028189;28;20036;-71
2022/09/06 08:58:16;;;;;;;14.15;8.32;;;;;;;24.23;65.83;101399.41;5034213;28;20047;-71
2022/09/06 09:00:58;;;;;;;13.35;8.07;;;;;;;26.15;57.94;101397.34;5031455;28;20101;-71
2022/09/06 09:03:35;;;;;;;12.05;8.32;;;;;;;27.87;52.19;101395.28;5027936;28;20029;-71
2022/09/06 09:06:04;;;;;;;11.27;5.82;;;;;;;29.04;46.95;101393.03;5021404;28;20032;-71
2022/09/06 09:09:00;;;;;;;9.23;4.53;;;;;;;29.51;46.05;101407.03;5022185;28;20036;-70
2022/09/06 09:11:25;;;;;;;9.33;4.03;;;;;;;30.50;41.29;101405.00;5024280;28;20487;-72
2022/09/06 09:13:55;;;;;;;8.33;4.07;;;;;;;31.46;41.42;101398.81;5031588;28;20036;-70
2022/09/06 09:16:21;;;;;;;8.43;3.55;;;;;;;32.52;36.81;101397.34;5038047;28;20311;-69
2022/09/06 09:18:52;;;;;;;9.43;3.70;;;;;;;33.28;37.24;101389.44;5026111;28;20072;-69
2022/09/06 09:21:21;;;;;;;10.18;4.35;;;;;;;33.45;36.18;101396.75;5033029;28;20206;-69
2022/09/06 09:23:58;;;;;;;9.07;4.25;;;;;;;33.75;36.79;101391.28;5029491;28;20091;-68
2022/09/06 09:26:27;;;;;;;6.87;3.93;;;;;;;33.96;34.02;101388.09;5030887;28;20033;-69
2022/09/06 09:29:03;;;;;;;10.10;4.75;;;;;;;33.84;35.66;101388.19;5036152;28;20480;-69
2022/09/06 09:31:46;;;;;;;8.65;4.20;;;;;;;33.62;36.60;101384.09;5042467;28;20043;-68
2022/09/06 09:34:13;;;;;;;10.10;4.38;;;;;;;34.24;33.52;101381.25;5039980;28;20025;-67
2022/09/06 09:36:39;;;;;;;8.30;4.05;;;;;;;34.80;32.93;101394.88;5043402;28;20025;-67
2022/09/06 09:39:11;;;;;;;9.13;3.80;;;;;;;35.48;33.17;101402.44;5062755;28;20066;-68
2022/09/06 09:41:39;;;;;;;7.50;3.67;;;;;;;35.85;31.07;101398.81;5047730;28;20028;-67
2022/09/06 09:44:09;;;;;;;6.82;3.80;;;;;;;36.32;31.41;101398.09;5061398;28;20032;-68
2022/09/06 09:46:38;;;;;;;7.30;4.18;;;;;;;36.59;29.74;101403.69;5041601;28;20043;-67
2022/09/06 09:49:10;;;;;;;8.60;4.18;;;;;;;35.95;31.74;101397.31;5041449;28;20032;-68
2022/09/06 09:51:36;;;;;;;7.88;3.72;;;;;;;36.67;31.12;101385.38;5054300;28;20419;-68
2022/09/06 09:54:05;;;;;;;7.72;4.10;;;;;;;36.53;29.86;101393.81;5051087;28;20120;-68
2022/09/06 09:56:58;;;;;;;7.95;3.78;;;;;;;36.15;30.91;101392.22;5053653;28;20056;-69
2022/09/06 09:59:41;;;;;;;9.18;4.07;;;;;;;35.32;31.95;101388.31;5045173;28;20488;-69
2022/09/06 10:02:39;;;;;;;10.23;4.00;;;;;;;36.47;32.81;101384.78;5053153;28;20073;-74
2022/09/06 10:05:18;;;;;;;9.95;3.95;;;;;;;36.47;31.59;101381.94;5028828;28;20118;-70
2022/09/06 10:07:50;;;;;;;8.07;3.92;;;;;;;36.33;31.55;101378.91;5046842;28;20115;-69
2022/09/06 10:10:24;;;;;;;8.00;3.53;;;;;;;36.81;29.96;101382.63;5061223;28;20036;-69
2022/09/06 10:13:06;;;;;;;8.05;3.78;;;;;;;37.19;30.72;101385.31;5023220;28;20021;-69
2022/09/06 10:15:35;;;;;;;6.22;3.55;;;;;;;37.09;28.32;101382.00;5038249;28;20387;-69
2022/09/06 10:18:01;;;;;;;9.30;3.90;;;;;;;37.25;28.35;101390.25;5028920;28;20068;-69
2022/09/06 10:20:54;;;;;;;9.25;4.07;;;;;;;37.39;30.09;101389.56;5037743;28;20115;-70
2022/09/06 10:23:40;;;;;;;7.82;3.60;;;;;;;37.07;30.27;101395.91;5040546;28;20041;-69
2022/09/06 10:26:18;;;;;;;10.97;4.10;;;;;;;36.76;30.05;101402.22;5036071;28;20029;-69
2022/09/06 10:28:44;;;;;;;10.80;3.60;;;;;;;36.66;29.51;101397.22;5038175;28;20650;-69
2022/09/06 10:31:37;;;;;;;6.28;3.40;;;;;;;36.96;30.26;101400.75;5038326;28;20585;-69
2022/09/06 10:34:23;;;;;;;5.97;2.97;;;;;;;37.35;30.35;101395.22;5033487;28;20044;-69
2022/09/06 10:37:03;;;;;;;6.82;3.20;;;;;;;37.63;28.48;101394.56;5027552;28;20029;-69
2022/09/06 10:39:46;;;;;;;8.60;3.35;;;;;;;37.69;28.38;101397.06;5024536;28;20065;-68
2022/09/06 10:42:36;;;;;;;7.15;3.60;;;;;;;38.04;29.18;101396.38;5032039;28;20037;-69
2022/09/06 10:45:17;;;;;;;6.55;3.47;;;;;;;37.27;29.58;101392.75;5037374;28;20051;-69
2022/09/06 10:47:57;;;;;;;7.15;3.80;;;;;;;37.63;29.40;101385.97;5037259;28;20037;-69
2022/09/06 10:50:37;;;;;;;6.97;3.92;;;;;;;37.95;28.34;101387.31;5040570;28;20033;-69
2022/09/06 10:53:12;;;;;;;8.88;4.10;;;;;;;38.40;27.84;101385.78;5039975;28;20475;-70
2022/09/06 10:55:39;;;;;;;7.10;3.90;;;;;;;38.31;27.21;101373.88;5036684;28;20032;-69
2022/09/06 10:58:05;;;;;;;;;;;;;;;39.40;28.00;101388.56;5043339;28;20032;-69
2022/09/06 11:00:41;;;;;;;9.65;4.10;;;;;;;38.32;27.64;101384.97;5040616;28;19931;-69
2022/09/06 11:03:14;;;;;;;6.75;3.47;;;;;;;36.92;29.41;101396.22;5042543;28;20471;-68
2022/09/06 11:05:44;;;;;;;8.32;4.68;;;;;;;34.40;32.78;101387.66;5035874;28;20096;-68
2022/09/06 11:08:26;;;;;;;8.88;4.22;;;;;;;33.35;35.19;101383.06;5044499;28;20071;-68
2022/09/06 11:10:54;;;;;;;7.25;4.30;;;;;;;34.04;35.09;101381.28;5044049;28;20384;-68
2022/09/06 11:13:24;;;;;;;8.23;4.30;;;;;;;35.50;32.40;101387.78;5042823;28;20040;-68
2022/09/06 11:16:04;;;;;;;8.40;3.53;;;;;;;36.77;31.16;101395.25;5045602;28;20053;-68
2022/09/06 11:18:43;;;;;;;9.23;4.95;;;;;;;37.32;29.51;101392.38;5045166;28;20029;-68
2022/09/06 11:21:08;;;;;;;13.07;4.82;;;;;;;36.87;28.95;101400.22;5044429;28;20025;-67
2022/09/06 11:23:47;;;;;;;6.72;3.83;;;;;;;36.30;32.19;101396.88;5044313;28;20036;-68